Terminal Aerodrome Forecast
Issued by NWS Twin Cities, MN

Home | Current Version | Previous Version | Text Only | Print | Product List | Glossary On
Versions: 1 2 3 4 5 6 7 8 9 10 11 12 13 14 15 16 17
000
FTUS43 KMPX 092325
TAFEAU
TAF
KEAU 092325Z 1000/1024 23005KT P6SM BKN100
     FM100600 20005KT P6SM BKN050 OVC080
     FM101100 30008KT P6SM BKN020 OVC040
     FM102000 31008KT P6SM SCT020 OVC050=

USA.gov is the U.S. government's official web portal to all federal, state and local government web resources and services.